Map

Track Data

SID SEASON NUMBER BASIN SUBBASIN NAME ISO_TIME NATURE LAT LON WMO_WIND WMO_PRES WMO_AGENCY TRACK_TYPE DIST2LAND LANDFALL IFLAG USA_AGENCY USA_ATCF_ID USA_LAT USA_LON USA_RECORD USA_STATUS USA_WIND USA_PRES USA_SSHS USA_R34_NE USA_R34_SE USA_R34_SW USA_R34_NW USA_R50_NE USA_R50_SE USA_R50_SW USA_R50_NW USA_R64_NE USA_R64_SE USA_R64_SW USA_R64_NW USA_POCI USA_ROCI USA_RMW USA_EYE TOKYO_LAT TOKYO_LON TOKYO_GRADE TOKYO_WIND TOKYO_PRES TOKYO_R50_DIR TOKYO_R50_LONG TOKYO_R50_SHORT TOKYO_R30_DIR TOKYO_R30_LONG TOKYO_R30_SHORT TOKYO_LAND CMA_LAT CMA_LON CMA_CAT CMA_WIND CMA_PRES HKO_LAT HKO_LON HKO_CAT HKO_WIND HKO_PRES NEWDELHI_LAT NEWDELHI_LON NEWDELHI_GRADE NEWDELHI_WIND NEWDELHI_PRES NEWDELHI_CI NEWDELHI_DP NEWDELHI_POCI REUNION_LAT REUNION_LON REUNION_TYPE REUNION_WIND REUNION_PRES REUNION_TNUM REUNION_CI REUNION_RMW REUNION_R34_NE REUNION_R34_SE REUNION_R34_SW REUNION_R34_NW REUNION_R50_NE REUNION_R50_SE REUNION_R50_SW REUNION_R50_NW REUNION_R64_NE REUNION_R64_SE REUNION_R64_SW REUNION_R64_NW BOM_LAT BOM_LON BOM_TYPE BOM_WIND BOM_PRES BOM_TNUM BOM_CI BOM_RMW BOM_R34_NE BOM_R34_SE BOM_R34_SW BOM_R34_NW BOM_R50_NE BOM_R50_SE BOM_R50_SW BOM_R50_NW BOM_R64_NE BOM_R64_SE BOM_R64_SW BOM_R64_NW BOM_ROCI BOM_POCI BOM_EYE BOM_POS_METHOD BOM_PRES_METHOD NADI_LAT NADI_LON NADI_CAT NADI_WIND NADI_PRES WELLINGTON_LAT WELLINGTON_LON WELLINGTON_WIND WELLINGTON_PRES DS824_LAT DS824_LON DS824_STAGE DS824_WIND DS824_PRES TD9636_LAT TD9636_LON TD9636_STAGE TD9636_WIND TD9636_PRES TD9635_LAT TD9635_LON TD9635_WIND TD9635_PRES TD9635_ROCI NEUMANN_LAT NEUMANN_LON NEUMANN_CLASS NEUMANN_WIND NEUMANN_PRES MLC_LAT MLC_LON MLC_CLASS MLC_WIND MLC_PRES USA_GUST BOM_GUST BOM_GUST_PER REUNION_GUST REUNION_GUST_PER USA_SEAHGT USA_SEARAD_NE USA_SEARAD_SE USA_SEARAD_SW USA_SEARAD_NW STORM_SPEED STORM_DIR
1887202N24131 1887 26 WP MM NOT_NAMED 1887-07-20 16:00:00 NR 24.2000 130.800 main 759 759 __________O___ -1 24.2000 130.800 7 3 286
1887202N24131 1887 26 WP MM NOT_NAMED 1887-07-20 18:00:00 NR 24.2287 130.692 main 759 748 __________P___ -1 24.2287 130.692 7 3 286
1887202N24131 1887 26 WP MM NOT_NAMED 1887-07-20 21:00:00 NR 24.2734 130.507 main 748 748 __________P___ -1 24.2734 130.507 7 4 284
1887202N24131 1887 26 WP MM NOT_NAMED 1887-07-21 00:00:00 NR 24.3227 130.267 main 749 739 __________P___ -1 24.3227 130.267 7 5 281
1887202N24131 1887 26 WP MM NOT_NAMED 1887-07-21 03:00:00 NR 24.3792 129.936 main 741 741 __________P___ -1 24.3792 129.936 7 6 280
1887202N24131 1887 26 WP MM NOT_NAMED 1887-07-21 04:00:00 NR 24.4000 129.800 main 742 742 __________O___ -1 24.4000 129.800 7 8 279
1887202N24131 1887 26 WP MM NOT_NAMED 1887-07-21 06:00:00 NR 24.4452 129.485 main 746 698 __________P___ -1 24.4452 129.485 7 10 279
1887202N24131 1887 26 WP MM NOT_NAMED 1887-07-21 09:00:00 NR 24.5250 128.924 main 698 637 __________P___ -1 24.5250 128.924 7 11 279
1887202N24131 1887 26 WP MM NOT_NAMED 1887-07-21 12:00:00 NR 24.6247 128.291 main 637 564 __________P___ -1 24.6247 128.291 7 12 281
1887202N24131 1887 26 WP MM NOT_NAMED 1887-07-21 15:00:00 NR 24.7508 127.624 main 564 544 __________P___ -1 24.7508 127.624 7 12 282
1887202N24131 1887 26 WP MM NOT_NAMED 1887-07-21 16:00:00 NR 24.8000 127.400 main 544 503 __________O___ -1 24.8000 127.400 7 11 284
1887202N24131 1887 26 WP MM NOT_NAMED 1887-07-21 18:00:00 NR 24.8931 127.013 main 503 443 __________P___ -1 24.8931 127.013 7 11 286
1887202N24131 1887 26 WP MM NOT_NAMED 1887-07-21 21:00:00 NR 25.0581 126.422 main 443 383 __________P___ -1 25.0581 126.422 7 12 288
1887202N24131 1887 26 WP MM NOT_NAMED 1887-07-22 00:00:00 NR 25.2604 125.785 main 383 316 __________P___ -1 25.2604 125.785 7 13 290
1887202N24131 1887 26 WP MM NOT_NAMED 1887-07-22 03:00:00 NR 25.5069 125.065 main 316 289 __________P___ -1 25.5069 125.065 7 14 291
1887202N24131 1887 26 WP MM NOT_NAMED 1887-07-22 04:00:00 NR 25.6000 124.800 main 289 238 __________O___ -1 25.6000 124.800 3 17 291
1887202N24131 1887 26 WP MM NOT_NAMED 1887-07-22 06:00:00 NR 25.7974 124.209 main 238 171 __________P___ -1 25.7974 124.209 3 18 291
1887202N24131 1887 26 WP MM NOT_NAMED 1887-07-22 09:00:00 NR 26.1307 123.232 main 171 156 __________P___ -1 26.1307 123.232 3 19 291
1887202N24131 1887 26 WP MM NOT_NAMED 1887-07-22 12:00:00 NR 26.4942 122.194 main 157 68 __________P___ -1 26.4942 122.194 3 20 292
1887202N24131 1887 26 WP MM NOT_NAMED 1887-07-22 15:00:00 NR 26.8728 121.144 main 68 45 __________P___ -1 26.8728 121.144 3 20 292
1887202N24131 1887 26 WP MM NOT_NAMED 1887-07-22 16:00:00 NR 27.0000 120.800 main 37 0 __________O___ -1 27.0000 120.800 4 20 293
1887202N24131 1887 26 WP MM NOT_NAMED 1887-07-22 18:00:00 NR 27.2536 120.130 main 0 0 __________P___ -1 27.2536 120.130 4 19 293
1887202N24131 1887 26 WP MM NOT_NAMED 1887-07-22 21:00:00 NR 27.6317 119.164 main 0 0 __________P___ -1 27.6317 119.164 4 18 294
1887202N24131 1887 26 WP MM NOT_NAMED 1887-07-23 00:00:00 NR 28.0067 118.228 main 0 0 __________P___ -1 28.0067 118.228 4 18 294
1887202N24131 1887 26 WP MM NOT_NAMED 1887-07-23 03:00:00 NR 28.3776 117.306 main 0 0 __________P___ -1 28.3776 117.306 4 18 295
1887202N24131 1887 26 WP MM NOT_NAMED 1887-07-23 04:00:00 NR 28.5000 117.000 main 0 __________O___ -1 28.5000 117.000 4 18 294

Digital Typhoon Data and Search

About IBTrACS Database

This database is a web-friendly format of International Best Track Archive for Climate Stewardship (IBTrACS), a global best track data archive curated by NOAA dating back to 1842.

Updated: 2021-11-26